sensor_id;sensor_type;location;lat;lon;timestamp;temperature;humidity
13462;DHT22;6803;45.264;5.468;2023-07-13T00:00:53;19.40;99.90
13462;DHT22;6803;45.264;5.468;2023-07-13T00:03:25;19.40;99.90
13462;DHT22;6803;45.264;5.468;2023-07-13T00:06:01;19.30;99.90
13462;DHT22;6803;45.264;5.468;2023-07-13T00:08:32;19.20;99.90
13462;DHT22;6803;45.264;5.468;2023-07-13T00:11:04;19.20;99.90
13462;DHT22;6803;45.264;5.468;2023-07-13T00:13:36;19.10;99.90
13462;DHT22;6803;45.264;5.468;2023-07-13T00:16:09;19.00;99.90
13462;DHT22;6803;45.264;5.468;2023-07-13T00:18:41;18.90;99.90
13462;DHT22;6803;45.264;5.468;2023-07-13T00:21:12;18.80;99.90
13462;DHT22;6803;45.264;5.468;2023-07-13T00:23:43;18.90;99.90
13462;DHT22;6803;45.264;5.468;2023-07-13T00:26:14;18.90;99.90
13462;DHT22;6803;45.264;5.468;2023-07-13T00:28:46;18.90;99.90
13462;DHT22;6803;45.264;5.468;2023-07-13T00:31:17;18.90;99.90
13462;DHT22;6803;45.264;5.468;2023-07-13T00:33:48;18.80;99.90
13462;DHT22;6803;45.264;5.468;2023-07-13T00:36:21;18.80;99.90
13462;DHT22;6803;45.264;5.468;2023-07-13T00:38:51;18.80;99.90
13462;DHT22;6803;45.264;5.468;2023-07-13T00:41:22;18.80;99.90
13462;DHT22;6803;45.264;5.468;2023-07-13T00:43:53;18.80;99.90
13462;DHT22;6803;45.264;5.468;2023-07-13T00:46:27;18.80;99.90
13462;DHT22;6803;45.264;5.468;2023-07-13T00:49:00;18.70;99.90
13462;DHT22;6803;45.264;5.468;2023-07-13T00:51:34;18.90;99.90
13462;DHT22;6803;45.264;5.468;2023-07-13T00:54:08;19.10;99.90
13462;DHT22;6803;45.264;5.468;2023-07-13T00:56:40;19.10;99.90
13462;DHT22;6803;45.264;5.468;2023-07-13T00:59:13;19.10;99.90
13462;DHT22;6803;45.264;5.468;2023-07-13T01:01:46;19.00;99.90
13462;DHT22;6803;45.264;5.468;2023-07-13T01:04:17;18.90;99.90
13462;DHT22;6803;45.264;5.468;2023-07-13T01:06:48;18.90;99.90
13462;DHT22;6803;45.264;5.468;2023-07-13T01:09:20;18.90;99.90
13462;DHT22;6803;45.264;5.468;2023-07-13T01:11:51;18.80;99.90
13462;DHT22;6803;45.264;5.468;2023-07-13T01:14:22;18.80;99.90
13462;DHT22;6803;45.264;5.468;2023-07-13T01:16:53;18.80;99.90
13462;DHT22;6803;45.264;5.468;2023-07-13T01:19:32;18.80;99.90
13462;DHT22;6803;45.264;5.468;2023-07-13T01:22:07;18.90;99.90
13462;DHT22;6803;45.264;5.468;2023-07-13T01:24:42;18.90;99.90
13462;DHT22;6803;45.264;5.468;2023-07-13T01:27:16;18.90;99.90
13462;DHT22;6803;45.264;5.468;2023-07-13T01:29:47;18.70;99.90
13462;DHT22;6803;45.264;5.468;2023-07-13T01:32:21;18.60;99.90
13462;DHT22;6803;45.264;5.468;2023-07-13T01:34:55;18.60;99.90
13462;DHT22;6803;45.264;5.468;2023-07-13T01:37:27;18.60;99.90
13462;DHT22;6803;45.264;5.468;2023-07-13T01:39:59;18.80;99.90
13462;DHT22;6803;45.264;5.468;2023-07-13T01:42:30;18.70;99.90
13462;DHT22;6803;45.264;5.468;2023-07-13T01:45:02;18.80;99.90
13462;DHT22;6803;45.264;5.468;2023-07-13T01:47:33;18.80;99.90
13462;DHT22;6803;45.264;5.468;2023-07-13T01:50:05;18.90;99.90
13462;DHT22;6803;45.264;5.468;2023-07-13T01:52:36;19.00;99.90
13462;DHT22;6803;45.264;5.468;2023-07-13T01:55:09;19.10;99.90
13462;DHT22;6803;45.264;5.468;2023-07-13T01:57:40;18.90;99.90
13462;DHT22;6803;45.264;5.468;2023-07-13T02:00:14;18.90;99.90
13462;DHT22;6803;45.264;5.468;2023-07-13T02:02:45;19.10;99.90
13462;DHT22;6803;45.264;5.468;2023-07-13T02:05:16;19.30;99.90
13462;DHT22;6803;45.264;5.468;2023-07-13T02:07:48;19.50;99.90
13462;DHT22;6803;45.264;5.468;2023-07-13T02:10:19;19.40;99.90
13462;DHT22;6803;45.264;5.468;2023-07-13T02:12:51;19.40;99.90
13462;DHT22;6803;45.264;5.468;2023-07-13T02:15:23;19.30;99.90
13462;DHT22;6803;45.264;5.468;2023-07-13T02:17:54;19.50;99.90
13462;DHT22;6803;45.264;5.468;2023-07-13T02:20:26;19.40;99.90
13462;DHT22;6803;45.264;5.468;2023-07-13T02:22:57;19.40;99.90
13462;DHT22;6803;45.264;5.468;2023-07-13T02:25:29;19.50;99.90
13462;DHT22;6803;45.264;5.468;2023-07-13T02:28:00;19.60;99.90
13462;DHT22;6803;45.264;5.468;2023-07-13T02:30:31;19.60;99.90
13462;DHT22;6803;45.264;5.468;2023-07-13T02:33:02;19.50;99.90
13462;DHT22;6803;45.264;5.468;2023-07-13T02:35:34;19.50;99.90
13462;DHT22;6803;45.264;5.468;2023-07-13T02:38:05;19.40;99.90
13462;DHT22;6803;45.264;5.468;2023-07-13T02:40:36;19.40;99.90
13462;DHT22;6803;45.264;5.468;2023-07-13T02:43:08;19.40;99.90
13462;DHT22;6803;45.264;5.468;2023-07-13T02:45:39;19.30;99.90
13462;DHT22;6803;45.264;5.468;2023-07-13T02:48:13;19.20;99.90
13462;DHT22;6803;45.264;5.468;2023-07-13T02:50:45;19.40;99.90
13462;DHT22;6803;45.264;5.468;2023-07-13T02:53:16;19.10;99.90
13462;DHT22;6803;45.264;5.468;2023-07-13T02:55:47;18.90;99.90
13462;DHT22;6803;45.264;5.468;2023-07-13T02:58:18;18.80;99.90
13462;DHT22;6803;45.264;5.468;2023-07-13T03:00:50;18.80;99.90
13462;DHT22;6803;45.264;5.468;2023-07-13T03:03:21;18.80;99.90
13462;DHT22;6803;45.264;5.468;2023-07-13T03:05:58;18.60;99.90
13462;DHT22;6803;45.264;5.468;2023-07-13T03:08:30;18.60;99.90
13462;DHT22;6803;45.264;5.468;2023-07-13T03:11:02;18.50;99.90
13462;DHT22;6803;45.264;5.468;2023-07-13T03:13:34;18.50;99.90
13462;DHT22;6803;45.264;5.468;2023-07-13T03:16:07;18.70;99.90
13462;DHT22;6803;45.264;5.468;2023-07-13T03:18:39;18.60;99.90
13462;DHT22;6803;45.264;5.468;2023-07-13T03:21:10;18.60;99.90
13462;DHT22;6803;45.264;5.468;2023-07-13T03:23:41;18.60;99.90
13462;DHT22;6803;45.264;5.468;2023-07-13T03:26:14;18.60;99.90
13462;DHT22;6803;45.264;5.468;2023-07-13T03:28:46;18.50;99.90
13462;DHT22;6803;45.264;5.468;2023-07-13T03:31:19;18.60;99.90
13462;DHT22;6803;45.264;5.468;2023-07-13T03:33:52;18.70;99.90
13462;DHT22;6803;45.264;5.468;2023-07-13T03:36:25;18.50;99.90
13462;DHT22;6803;45.264;5.468;2023-07-13T03:38:57;18.90;99.90
13462;DHT22;6803;45.264;5.468;2023-07-13T03:41:28;18.80;99.90
13462;DHT22;6803;45.264;5.468;2023-07-13T03:44:00;18.50;99.90
13462;DHT22;6803;45.264;5.468;2023-07-13T03:46:30;18.50;99.90
13462;DHT22;6803;45.264;5.468;2023-07-13T03:49:03;18.60;99.90
13462;DHT22;6803;45.264;5.468;2023-07-13T03:51:34;18.60;99.90
13462;DHT22;6803;45.264;5.468;2023-07-13T03:54:05;18.60;99.90
13462;DHT22;6803;45.264;5.468;2023-07-13T03:56:36;18.50;99.90
13462;DHT22;6803;45.264;5.468;2023-07-13T03:59:06;18.50;99.90
13462;DHT22;6803;45.264;5.468;2023-07-13T04:01:37;18.70;99.90
13462;DHT22;6803;45.264;5.468;2023-07-13T04:04:08;18.70;99.90
13462;DHT22;6803;45.264;5.468;2023-07-13T04:06:39;18.40;99.90
13462;DHT22;6803;45.264;5.468;2023-07-13T04:09:10;18.40;99.90
13462;DHT22;6803;45.264;5.468;2023-07-13T04:11:41;18.40;99.90
13462;DHT22;6803;45.264;5.468;2023-07-13T04:14:12;18.50;99.90
13462;DHT22;6803;45.264;5.468;2023-07-13T04:16:43;18.40;99.90
13462;DHT22;6803;45.264;5.468;2023-07-13T04:19:14;18.40;99.90
13462;DHT22;6803;45.264;5.468;2023-07-13T04:21:46;18.30;99.90
13462;DHT22;6803;45.264;5.468;2023-07-13T04:24:18;18.20;99.90
13462;DHT22;6803;45.264;5.468;2023-07-13T04:26:49;18.10;99.90
13462;DHT22;6803;45.264;5.468;2023-07-13T04:29:20;18.00;99.90
13462;DHT22;6803;45.264;5.468;2023-07-13T04:31:50;18.10;99.90
13462;DHT22;6803;45.264;5.468;2023-07-13T04:34:21;18.10;99.90
13462;DHT22;6803;45.264;5.468;2023-07-13T04:36:53;18.10;99.90
13462;DHT22;6803;45.264;5.468;2023-07-13T04:39:24;18.10;99.90
13462;DHT22;6803;45.264;5.468;2023-07-13T04:41:54;18.10;99.90
13462;DHT22;6803;45.264;5.468;2023-07-13T04:44:25;18.20;99.90
13462;DHT22;6803;45.264;5.468;2023-07-13T04:46:56;18.10;99.90
13462;DHT22;6803;45.264;5.468;2023-07-13T04:49:27;18.20;99.90
13462;DHT22;6803;45.264;5.468;2023-07-13T04:51:57;18.10;99.90
13462;DHT22;6803;45.264;5.468;2023-07-13T04:54:28;18.00;99.90
13462;DHT22;6803;45.264;5.468;2023-07-13T04:56:59;18.00;99.90
13462;DHT22;6803;45.264;5.468;2023-07-13T04:59:30;17.90;99.90
13462;DHT22;6803;45.264;5.468;2023-07-13T05:02:01;17.90;99.90
13462;DHT22;6803;45.264;5.468;2023-07-13T05:04:33;17.80;99.90
13462;DHT22;6803;45.264;5.468;2023-07-13T05:07:04;17.80;99.90
13462;DHT22;6803;45.264;5.468;2023-07-13T05:09:36;17.70;99.90
13462;DHT22;6803;45.264;5.468;2023-07-13T05:12:10;17.60;99.90
13462;DHT22;6803;45.264;5.468;2023-07-13T05:14:41;17.50;99.90
13462;DHT22;6803;45.264;5.468;2023-07-13T05:17:12;17.40;99.90
13462;DHT22;6803;45.264;5.468;2023-07-13T05:19:43;17.30;99.90
13462;DHT22;6803;45.264;5.468;2023-07-13T05:22:14;17.30;99.90
13462;DHT22;6803;45.264;5.468;2023-07-13T05:24:45;17.30;99.90
13462;DHT22;6803;45.264;5.468;2023-07-13T05:27:16;17.40;99.90
13462;DHT22;6803;45.264;5.468;2023-07-13T05:29:47;17.30;99.90
13462;DHT22;6803;45.264;5.468;2023-07-13T05:32:19;17.20;99.90
13462;DHT22;6803;45.264;5.468;2023-07-13T05:34:50;17.20;99.90
13462;DHT22;6803;45.264;5.468;2023-07-13T05:37:22;17.10;99.90
13462;DHT22;6803;45.264;5.468;2023-07-13T05:39:53;17.10;99.90
13462;DHT22;6803;45.264;5.468;2023-07-13T05:42:24;17.10;99.90
13462;DHT22;6803;45.264;5.468;2023-07-13T05:44:55;17.30;99.90
13462;DHT22;6803;45.264;5.468;2023-07-13T05:47:25;17.40;99.90
13462;DHT22;6803;45.264;5.468;2023-07-13T05:49:56;17.30;99.90
13462;DHT22;6803;45.264;5.468;2023-07-13T05:52:27;17.20;99.90
13462;DHT22;6803;45.264;5.468;2023-07-13T05:54:57;17.20;99.90
13462;DHT22;6803;45.264;5.468;2023-07-13T05:57:28;17.30;99.90
13462;DHT22;6803;45.264;5.468;2023-07-13T05:59:59;17.20;99.90
13462;DHT22;6803;45.264;5.468;2023-07-13T06:02:30;17.20;99.90
13462;DHT22;6803;45.264;5.468;2023-07-13T06:05:01;17.30;99.90
13462;DHT22;6803;45.264;5.468;2023-07-13T06:07:31;17.40;99.90
13462;DHT22;6803;45.264;5.468;2023-07-13T06:10:02;17.50;99.90
13462;DHT22;6803;45.264;5.468;2023-07-13T06:12:33;17.70;99.90
13462;DHT22;6803;45.264;5.468;2023-07-13T06:15:06;17.90;99.90
13462;DHT22;6803;45.264;5.468;2023-07-13T06:17:37;18.00;99.90
13462;DHT22;6803;45.264;5.468;2023-07-13T06:20:09;17.80;99.90
13462;DHT22;6803;45.264;5.468;2023-07-13T06:22:40;17.80;99.90
13462;DHT22;6803;45.264;5.468;2023-07-13T06:25:11;17.70;99.90
13462;DHT22;6803;45.264;5.468;2023-07-13T06:27:41;17.40;99.90
13462;DHT22;6803;45.264;5.468;2023-07-13T06:30:14;17.30;99.90
13462;DHT22;6803;45.264;5.468;2023-07-13T06:32:45;17.50;99.90
13462;DHT22;6803;45.264;5.468;2023-07-13T06:35:16;17.60;99.90
13462;DHT22;6803;45.264;5.468;2023-07-13T06:37:47;17.70;99.90
13462;DHT22;6803;45.264;5.468;2023-07-13T06:40:18;18.00;99.90
13462;DHT22;6803;45.264;5.468;2023-07-13T06:42:50;18.10;99.90
13462;DHT22;6803;45.264;5.468;2023-07-13T06:45:21;18.20;99.90
13462;DHT22;6803;45.264;5.468;2023-07-13T06:47:52;18.40;99.90
13462;DHT22;6803;45.264;5.468;2023-07-13T06:50:23;18.40;99.90
13462;DHT22;6803;45.264;5.468;2023-07-13T06:52:53;18.50;99.90
13462;DHT22;6803;45.264;5.468;2023-07-13T06:55:24;18.60;99.90
13462;DHT22;6803;45.264;5.468;2023-07-13T06:57:55;18.60;99.90
13462;DHT22;6803;45.264;5.468;2023-07-13T07:00:26;18.70;99.90
13462;DHT22;6803;45.264;5.468;2023-07-13T07:02:57;18.90;99.90
13462;DHT22;6803;45.264;5.468;2023-07-13T07:05:28;19.10;99.90
13462;DHT22;6803;45.264;5.468;2023-07-13T07:07:59;19.00;99.90
13462;DHT22;6803;45.264;5.468;2023-07-13T07:10:31;19.30;99.90
13462;DHT22;6803;45.264;5.468;2023-07-13T07:13:02;19.30;99.90
13462;DHT22;6803;45.264;5.468;2023-07-13T07:18:13;19.60;99.90
13462;DHT22;6803;45.264;5.468;2023-07-13T07:20:44;19.80;99.90
13462;DHT22;6803;45.264;5.468;2023-07-13T07:23:14;20.00;99.90
13462;DHT22;6803;45.264;5.468;2023-07-13T07:25:45;20.10;99.90
13462;DHT22;6803;45.264;5.468;2023-07-13T07:28:17;20.40;99.90
13462;DHT22;6803;45.264;5.468;2023-07-13T07:30:52;20.60;99.90
13462;DHT22;6803;45.264;5.468;2023-07-13T07:33:24;20.90;99.90
13462;DHT22;6803;45.264;5.468;2023-07-13T07:35:55;21.00;99.90
13462;DHT22;6803;45.264;5.468;2023-07-13T07:38:28;21.30;99.90
13462;DHT22;6803;45.264;5.468;2023-07-13T07:40:58;21.10;99.90
13462;DHT22;6803;45.264;5.468;2023-07-13T07:43:32;21.00;99.90
13462;DHT22;6803;45.264;5.468;2023-07-13T07:46:03;21.00;99.90
13462;DHT22;6803;45.264;5.468;2023-07-13T07:48:34;21.30;99.90
13462;DHT22;6803;45.264;5.468;2023-07-13T07:51:05;21.30;99.90
13462;DHT22;6803;45.264;5.468;2023-07-13T07:53:36;21.40;99.90
13462;DHT22;6803;45.264;5.468;2023-07-13T07:56:07;21.10;99.90
13462;DHT22;6803;45.264;5.468;2023-07-13T07:58:40;21.30;99.90
13462;DHT22;6803;45.264;5.468;2023-07-13T08:01:13;21.60;99.90
13462;DHT22;6803;45.264;5.468;2023-07-13T08:03:47;21.60;99.90
13462;DHT22;6803;45.264;5.468;2023-07-13T08:06:19;21.30;99.90
13462;DHT22;6803;45.264;5.468;2023-07-13T08:08:52;21.30;99.90
13462;DHT22;6803;45.264;5.468;2023-07-13T08:11:23;21.50;99.90
13462;DHT22;6803;45.264;5.468;2023-07-13T08:13:55;21.50;99.90
13462;DHT22;6803;45.264;5.468;2023-07-13T08:16:27;21.50;99.90
13462;DHT22;6803;45.264;5.468;2023-07-13T08:18:58;21.00;99.90
13462;DHT22;6803;45.264;5.468;2023-07-13T08:21:29;20.80;99.90
13462;DHT22;6803;45.264;5.468;2023-07-13T08:23:59;20.80;99.90
13462;DHT22;6803;45.264;5.468;2023-07-13T08:26:30;20.80;99.90
13462;DHT22;6803;45.264;5.468;2023-07-13T08:29:01;21.10;99.90
13462;DHT22;6803;45.264;5.468;2023-07-13T08:31:32;21.50;99.90
13462;DHT22;6803;45.264;5.468;2023-07-13T08:34:03;21.40;99.90
13462;DHT22;6803;45.264;5.468;2023-07-13T08:36:34;21.60;99.90
13462;DHT22;6803;45.264;5.468;2023-07-13T08:39:06;22.00;99.90
13462;DHT22;6803;45.264;5.468;2023-07-13T08:41:37;22.20;99.90
13462;DHT22;6803;45.264;5.468;2023-07-13T08:46:51;21.80;99.90
13462;DHT22;6803;45.264;5.468;2023-07-13T08:49:24;22.10;99.90
13462;DHT22;6803;45.264;5.468;2023-07-13T08:51:58;22.30;99.90
13462;DHT22;6803;45.264;5.468;2023-07-13T08:54:32;22.00;99.90
13462;DHT22;6803;45.264;5.468;2023-07-13T08:57:10;22.20;99.90
13462;DHT22;6803;45.264;5.468;2023-07-13T08:59:40;22.50;99.90
13462;DHT22;6803;45.264;5.468;2023-07-13T09:02:20;22.70;99.90
13462;DHT22;6803;45.264;5.468;2023-07-13T09:04:54;22.40;99.90
13462;DHT22;6803;45.264;5.468;2023-07-13T09:07:37;22.40;99.90
13462;DHT22;6803;45.264;5.468;2023-07-13T09:10:15;22.90;99.90
13462;DHT22;6803;45.264;5.468;2023-07-13T09:12:57;23.30;99.90
13462;DHT22;6803;45.264;5.468;2023-07-13T09:15:31;23.10;99.90
13462;DHT22;6803;45.264;5.468;2023-07-13T09:18:07;23.50;99.90
13462;DHT22;6803;45.264;5.468;2023-07-13T09:20:40;23.50;99.90
13462;DHT22;6803;45.264;5.468;2023-07-13T09:23:14;23.50;99.90
13462;DHT22;6803;45.264;5.468;2023-07-13T09:25:49;23.80;99.90
13462;DHT22;6803;45.264;5.468;2023-07-13T09:28:25;24.20;99.90
13462;DHT22;6803;45.264;5.468;2023-07-13T09:31:00;24.00;99.90
13462;DHT22;6803;45.264;5.468;2023-07-13T09:33:32;23.70;99.90
13462;DHT22;6803;45.264;5.468;2023-07-13T09:36:18;22.90;99.90
13462;DHT22;6803;45.264;5.468;2023-07-13T09:38:53;23.20;99.90
13462;DHT22;6803;45.264;5.468;2023-07-13T09:41:26;23.60;99.90
13462;DHT22;6803;45.264;5.468;2023-07-13T09:44:09;24.00;99.90
13462;DHT22;6803;45.264;5.468;2023-07-13T09:49:25;23.90;99.90
13462;DHT22;6803;45.264;5.468;2023-07-13T09:52:00;23.90;99.90
13462;DHT22;6803;45.264;5.468;2023-07-13T09:54:34;23.40;99.90
13462;DHT22;6803;45.264;5.468;2023-07-13T09:57:13;23.80;99.90
13462;DHT22;6803;45.264;5.468;2023-07-13T09:59:47;24.20;99.90
13462;DHT22;6803;45.264;5.468;2023-07-13T10:02:27;24.30;99.90
13462;DHT22;6803;45.264;5.468;2023-07-13T10:05:00;24.60;99.90
13462;DHT22;6803;45.264;5.468;2023-07-13T10:07:37;25.00;99.90
13462;DHT22;6803;45.264;5.468;2023-07-13T10:10:14;24.60;99.90
13462;DHT22;6803;45.264;5.468;2023-07-13T10:12:44;24.80;99.90
13462;DHT22;6803;45.264;5.468;2023-07-13T10:15:18;25.10;99.90
13462;DHT22;6803;45.264;5.468;2023-07-13T10:17:52;25.60;99.90
13462;DHT22;6803;45.264;5.468;2023-07-13T10:20:25;25.50;99.90
13462;DHT22;6803;45.264;5.468;2023-07-13T10:22:59;25.00;99.90
13462;DHT22;6803;45.264;5.468;2023-07-13T10:25:34;24.70;99.90
13462;DHT22;6803;45.264;5.468;2023-07-13T10:28:10;25.30;99.90
13462;DHT22;6803;45.264;5.468;2023-07-13T10:30:40;25.60;99.90
13462;DHT22;6803;45.264;5.468;2023-07-13T10:33:14;26.40;99.90
13462;DHT22;6803;45.264;5.468;2023-07-13T10:35:46;26.30;99.90
13462;DHT22;6803;45.264;5.468;2023-07-13T10:38:21;26.40;99.90
13462;DHT22;6803;45.264;5.468;2023-07-13T10:40:56;26.50;99.90
13462;DHT22;6803;45.264;5.468;2023-07-13T10:43:29;25.50;99.90
13462;DHT22;6803;45.264;5.468;2023-07-13T10:46:01;24.60;99.90
13462;DHT22;6803;45.264;5.468;2023-07-13T10:48:33;24.20;99.90
13462;DHT22;6803;45.264;5.468;2023-07-13T10:51:07;24.60;99.90
13462;DHT22;6803;45.264;5.468;2023-07-13T10:53:39;24.50;99.90
13462;DHT22;6803;45.264;5.468;2023-07-13T10:56:24;25.10;99.90
13462;DHT22;6803;45.264;5.468;2023-07-13T10:59:09;25.60;99.90
13462;DHT22;6803;45.264;5.468;2023-07-13T11:01:54;25.70;99.90
13462;DHT22;6803;45.264;5.468;2023-07-13T11:04:27;26.00;99.90
13462;DHT22;6803;45.264;5.468;2023-07-13T11:07:09;25.90;99.90
13462;DHT22;6803;45.264;5.468;2023-07-13T11:09:39;25.20;99.90
13462;DHT22;6803;45.264;5.468;2023-07-13T11:12:27;24.80;99.90
13462;DHT22;6803;45.264;5.468;2023-07-13T11:15:11;24.40;99.90
13462;DHT22;6803;45.264;5.468;2023-07-13T11:17:53;24.20;99.90
13462;DHT22;6803;45.264;5.468;2023-07-13T11:20:39;24.00;99.90
13462;DHT22;6803;45.264;5.468;2023-07-13T11:23:28;24.60;99.90
13462;DHT22;6803;45.264;5.468;2023-07-13T11:26:01;25.30;99.90
13462;DHT22;6803;45.264;5.468;2023-07-13T11:28:33;26.10;99.90
13462;DHT22;6803;45.264;5.468;2023-07-13T11:31:15;26.30;99.90
13462;DHT22;6803;45.264;5.468;2023-07-13T11:36:48;26.10;99.90
13462;DHT22;6803;45.264;5.468;2023-07-13T11:42:02;26.20;99.90
13462;DHT22;6803;45.264;5.468;2023-07-13T11:44:35;27.20;99.90
13462;DHT22;6803;45.264;5.468;2023-07-13T11:47:11;27.10;99.90
13462;DHT22;6803;45.264;5.468;2023-07-13T11:49:44;27.30;99.90
13462;DHT22;6803;45.264;5.468;2023-07-13T11:52:18;27.40;99.90
13462;DHT22;6803;45.264;5.468;2023-07-13T11:54:51;26.90;99.90
13462;DHT22;6803;45.264;5.468;2023-07-13T11:57:26;27.10;99.90
13462;DHT22;6803;45.264;5.468;2023-07-13T12:00:00;26.90;99.90
13462;DHT22;6803;45.264;5.468;2023-07-13T12:02:33;27.20;99.90
13462;DHT22;6803;45.264;5.468;2023-07-13T12:05:05;27.20;99.90
13462;DHT22;6803;45.264;5.468;2023-07-13T12:07:38;27.50;99.90
13462;DHT22;6803;45.264;5.468;2023-07-13T12:10:18;27.80;99.90
13462;DHT22;6803;45.264;5.468;2023-07-13T12:12:52;28.10;99.90
13462;DHT22;6803;45.264;5.468;2023-07-13T12:15:28;26.10;99.90
13462;DHT22;6803;45.264;5.468;2023-07-13T12:17:59;26.90;99.90
13462;DHT22;6803;45.264;5.468;2023-07-13T12:23:19;28.00;99.90
13462;DHT22;6803;45.264;5.468;2023-07-13T12:25:48;27.90;99.90
13462;DHT22;6803;45.264;5.468;2023-07-13T12:28:29;28.10;99.90
13462;DHT22;6803;45.264;5.468;2023-07-13T12:30:58;28.60;99.90
13462;DHT22;6803;45.264;5.468;2023-07-13T12:33:32;28.30;99.50
13462;DHT22;6803;45.264;5.468;2023-07-13T12:36:05;28.20;99.20
13462;DHT22;6803;45.264;5.468;2023-07-13T12:38:37;27.50;99.90
13462;DHT22;6803;45.264;5.468;2023-07-13T12:41:10;28.50;99.90
13462;DHT22;6803;45.264;5.468;2023-07-13T12:43:41;27.80;99.60
13462;DHT22;6803;45.264;5.468;2023-07-13T12:46:18;27.50;99.90
13462;DHT22;6803;45.264;5.468;2023-07-13T12:48:51;27.60;99.90
13462;DHT22;6803;45.264;5.468;2023-07-13T12:51:26;27.70;99.90
13462;DHT22;6803;45.264;5.468;2023-07-13T12:54:05;27.90;99.60
13462;DHT22;6803;45.264;5.468;2023-07-13T12:56:33;28.00;99.90
13462;DHT22;6803;45.264;5.468;2023-07-13T12:59:05;28.00;98.70
13462;DHT22;6803;45.264;5.468;2023-07-13T13:01:37;27.20;99.00
13462;DHT22;6803;45.264;5.468;2023-07-13T13:04:10;27.90;99.90
13462;DHT22;6803;45.264;5.468;2023-07-13T13:06:42;28.80;99.40
13462;DHT22;6803;45.264;5.468;2023-07-13T13:11:50;28.70;98.90
13462;DHT22;6803;45.264;5.468;2023-07-13T13:14:22;29.30;99.20
13462;DHT22;6803;45.264;5.468;2023-07-13T13:16:54;28.80;98.70
13462;DHT22;6803;45.264;5.468;2023-07-13T13:19:27;28.70;99.10
13462;DHT22;6803;45.264;5.468;2023-07-13T13:21:58;28.40;98.80
13462;DHT22;6803;45.264;5.468;2023-07-13T13:24:29;29.00;99.90
13462;DHT22;6803;45.264;5.468;2023-07-13T13:27:01;29.50;99.90
13462;DHT22;6803;45.264;5.468;2023-07-13T13:29:34;29.90;98.70
13462;DHT22;6803;45.264;5.468;2023-07-13T13:32:10;29.70;98.30
13462;DHT22;6803;45.264;5.468;2023-07-13T13:34:42;29.80;97.50
13462;DHT22;6803;45.264;5.468;2023-07-13T13:37:19;29.70;97.20
13462;DHT22;6803;45.264;5.468;2023-07-13T13:39:51;29.60;98.60
13462;DHT22;6803;45.264;5.468;2023-07-13T13:42:24;29.80;98.60
13462;DHT22;6803;45.264;5.468;2023-07-13T13:44:56;29.80;97.40
13462;DHT22;6803;45.264;5.468;2023-07-13T13:47:32;29.90;99.40
13462;DHT22;6803;45.264;5.468;2023-07-13T13:52:50;29.00;99.00
13462;DHT22;6803;45.264;5.468;2023-07-13T13:55:22;29.40;99.90
13462;DHT22;6803;45.264;5.468;2023-07-13T13:57:53;30.10;97.90
13462;DHT22;6803;45.264;5.468;2023-07-13T14:00:24;30.10;96.70
13462;DHT22;6803;45.264;5.468;2023-07-13T14:02:55;29.30;98.90
13462;DHT22;6803;45.264;5.468;2023-07-13T14:05:27;29.40;97.80
13462;DHT22;6803;45.264;5.468;2023-07-13T14:07:59;29.20;97.80
13462;DHT22;6803;45.264;5.468;2023-07-13T14:10:31;29.60;95.50
13462;DHT22;6803;45.264;5.468;2023-07-13T14:13:02;29.40;95.20
13462;DHT22;6803;45.264;5.468;2023-07-13T14:15:34;28.80;93.90
13462;DHT22;6803;45.264;5.468;2023-07-13T14:18:07;29.60;94.60
13462;DHT22;6803;45.264;5.468;2023-07-13T14:20:40;30.20;93.00
13462;DHT22;6803;45.264;5.468;2023-07-13T14:25:52;30.60;92.40
13462;DHT22;6803;45.264;5.468;2023-07-13T14:28:24;31.20;93.10
13462;DHT22;6803;45.264;5.468;2023-07-13T14:30:56;31.30;91.60
13462;DHT22;6803;45.264;5.468;2023-07-13T14:33:27;31.20;89.40
13462;DHT22;6803;45.264;5.468;2023-07-13T14:35:58;30.90;93.60
13462;DHT22;6803;45.264;5.468;2023-07-13T14:38:29;30.10;91.20
13462;DHT22;6803;45.264;5.468;2023-07-13T14:40:59;29.60;95.40
13462;DHT22;6803;45.264;5.468;2023-07-13T14:43:30;29.40;94.00
13462;DHT22;6803;45.264;5.468;2023-07-13T14:46:01;29.20;91.80
13462;DHT22;6803;45.264;5.468;2023-07-13T14:48:33;30.00;92.90
13462;DHT22;6803;45.264;5.468;2023-07-13T14:51:07;30.50;90.30
13462;DHT22;6803;45.264;5.468;2023-07-13T14:53:39;31.20;91.60
13462;DHT22;6803;45.264;5.468;2023-07-13T14:56:12;30.30;90.10
13462;DHT22;6803;45.264;5.468;2023-07-13T14:58:44;30.90;91.30
13462;DHT22;6803;45.264;5.468;2023-07-13T15:01:16;30.80;94.50
13462;DHT22;6803;45.264;5.468;2023-07-13T15:03:49;30.20;93.50
13462;DHT22;6803;45.264;5.468;2023-07-13T15:06:21;30.00;90.60
13462;DHT22;6803;45.264;5.468;2023-07-13T15:08:52;29.70;92.60
13462;DHT22;6803;45.264;5.468;2023-07-13T15:11:22;29.70;92.90
13462;DHT22;6803;45.264;5.468;2023-07-13T15:13:55;30.40;92.50
13462;DHT22;6803;45.264;5.468;2023-07-13T15:16:26;30.20;91.90
13462;DHT22;6803;45.264;5.468;2023-07-13T15:18:57;30.10;90.90
13462;DHT22;6803;45.264;5.468;2023-07-13T15:21:29;30.70;92.90
13462;DHT22;6803;45.264;5.468;2023-07-13T15:24:02;30.70;92.20
13462;DHT22;6803;45.264;5.468;2023-07-13T15:29:03;30.20;91.10
13462;DHT22;6803;45.264;5.468;2023-07-13T15:31:34;30.20;92.30
13462;DHT22;6803;45.264;5.468;2023-07-13T15:34:12;30.50;92.30
13462;DHT22;6803;45.264;5.468;2023-07-13T15:36:46;30.80;91.70
13462;DHT22;6803;45.264;5.468;2023-07-13T15:39:17;31.00;93.90
13462;DHT22;6803;45.264;5.468;2023-07-13T15:41:48;30.90;90.60
13462;DHT22;6803;45.264;5.468;2023-07-13T15:44:26;30.60;91.80
13462;DHT22;6803;45.264;5.468;2023-07-13T15:46:58;30.60;93.50
13462;DHT22;6803;45.264;5.468;2023-07-13T15:49:32;30.40;92.60
13462;DHT22;6803;45.264;5.468;2023-07-13T15:52:04;30.10;92.90
13462;DHT22;6803;45.264;5.468;2023-07-13T15:54:35;30.30;92.00
13462;DHT22;6803;45.264;5.468;2023-07-13T15:57:08;30.50;92.40
13462;DHT22;6803;45.264;5.468;2023-07-13T15:59:40;30.00;96.00
13462;DHT22;6803;45.264;5.468;2023-07-13T16:04:55;29.80;94.00
13462;DHT22;6803;45.264;5.468;2023-07-13T16:07:25;29.90;93.90
13462;DHT22;6803;45.264;5.468;2023-07-13T16:09:56;29.70;91.10
13462;DHT22;6803;45.264;5.468;2023-07-13T16:12:27;29.60;95.10
13462;DHT22;6803;45.264;5.468;2023-07-13T16:14:58;29.20;93.50
13462;DHT22;6803;45.264;5.468;2023-07-13T16:17:30;28.70;93.80
13462;DHT22;6803;45.264;5.468;2023-07-13T16:20:01;29.20;93.80
13462;DHT22;6803;45.264;5.468;2023-07-13T16:22:32;29.60;95.50
13462;DHT22;6803;45.264;5.468;2023-07-13T16:25:07;29.40;93.50
13462;DHT22;6803;45.264;5.468;2023-07-13T16:27:39;29.20;94.30
13462;DHT22;6803;45.264;5.468;2023-07-13T16:30:15;28.70;94.20
13462;DHT22;6803;45.264;5.468;2023-07-13T16:32:47;28.20;93.00
13462;DHT22;6803;45.264;5.468;2023-07-13T16:35:20;28.10;94.60
13462;DHT22;6803;45.264;5.468;2023-07-13T16:37:52;27.80;96.50
13462;DHT22;6803;45.264;5.468;2023-07-13T16:40:27;27.00;96.40
13462;DHT22;6803;45.264;5.468;2023-07-13T16:42:59;26.70;96.10
13462;DHT22;6803;45.264;5.468;2023-07-13T16:45:33;26.40;99.50
13462;DHT22;6803;45.264;5.468;2023-07-13T16:48:10;26.00;97.90